Tuxedo, Georgia
Current Conditions -  °F | °C
As of 4:53 PM on Monday 24 Nov 2014 (Local Time) from KPDK Reporting Station
Clear Clear  
Wind Chill: 69°   Ceiling: Unl
Heat Index: 69°   Visibility: 10mi
Dew Point: 49°   Wind: 7mph
Humidity: 49%   Direction: 230°SW
Pressure: 29.82"   Gusts: NA
Location:  33.8817°N, 84.3745°W
Report Text: KPDK 242153Z 23006KT 10SM CLR 21/09 A2982 RMK AO2 SLP088 T02060094
Loading
Personal Weather Stations






























Interactive Weather Map New forecast layout! Learn more

10-Day Weather Forecast

Advertisements
Track Severe Weather on mobile